Low Ground, Missouri
Current Conditions -  °F | °C
As of 7:34 AM on Sunday 23 Nov 2014 (Local Time) from KIRK Reporting Station
Moderate Rain Moderate Rain  
Wind Chill: 51°   Ceiling: 600
Heat Index: 51°   Visibility: 2mi
Dew Point: 51°   Wind: 8mph
Humidity: 100%   Direction: 150°SSE
Pressure: 29.58"   Gusts: NA
Location:  40.2969°N, 92.7524°W
Report Text: KIRK 231334Z AUTO 15007KT 2SM RA BR OVC006 11/11 A2958 RMK AO2 CIG 004V009 P0011 T01060106
Loading
Personal Weather Stations






























Interactive Weather Map New forecast layout! Learn more

10-Day Weather Forecast

Advertisements
Track Severe Weather on mobile